sensor_id;sensor_type;location;lat;lon;timestamp;P1;durP1;ratioP1;P2;durP2;ratioP2
74904;SDS011;63465;50.862;6.220;2024-02-26T00:02:05;3.20;;;1.83;;
74904;SDS011;63465;50.862;6.220;2024-02-26T00:04:31;1.80;;;1.40;;
74904;SDS011;63465;50.862;6.220;2024-02-26T00:06:57;1.87;;;1.50;;
74904;SDS011;63465;50.862;6.220;2024-02-26T00:09:23;2.67;;;1.77;;
74904;SDS011;63465;50.862;6.220;2024-02-26T00:11:48;2.73;;;1.80;;
74904;SDS011;63465;50.862;6.220;2024-02-26T00:14:13;2.80;;;1.53;;
74904;SDS011;63465;50.862;6.220;2024-02-26T00:16:42;1.50;;;1.40;;
74904;SDS011;63465;50.862;6.220;2024-02-26T00:19:07;1.70;;;1.43;;
74904;SDS011;63465;50.862;6.220;2024-02-26T00:21:33;1.50;;;1.40;;
74904;SDS011;63465;50.862;6.220;2024-02-26T00:23:58;1.53;;;1.40;;
74904;SDS011;63465;50.862;6.220;2024-02-26T00:26:23;2.07;;;1.63;;
74904;SDS011;63465;50.862;6.220;2024-02-26T00:28:49;1.40;;;1.30;;
74904;SDS011;63465;50.862;6.220;2024-02-26T00:31:14;2.47;;;1.37;;
74904;SDS011;63465;50.862;6.220;2024-02-26T00:33:39;1.40;;;1.30;;
74904;SDS011;63465;50.862;6.220;2024-02-26T00:36:05;2.30;;;1.43;;
74904;SDS011;63465;50.862;6.220;2024-02-26T00:46:16;1.60;;;1.50;;
74904;SDS011;63465;50.862;6.220;2024-02-26T00:48:41;1.73;;;1.37;;
74904;SDS011;63465;50.862;6.220;2024-02-26T00:51:07;1.33;;;1.27;;
74904;SDS011;63465;50.862;6.220;2024-02-26T00:53:32;1.47;;;1.37;;
74904;SDS011;63465;50.862;6.220;2024-02-26T00:55:58;1.57;;;1.47;;
74904;SDS011;63465;50.862;6.220;2024-02-26T00:58:26;1.40;;;1.30;;
74904;SDS011;63465;50.862;6.220;2024-02-26T01:00:52;1.63;;;1.27;;
74904;SDS011;63465;50.862;6.220;2024-02-26T01:03:17;2.10;;;1.60;;
74904;SDS011;63465;50.862;6.220;2024-02-26T01:05:43;2.10;;;1.27;;
74904;SDS011;63465;50.862;6.220;2024-02-26T01:08:08;1.30;;;1.20;;
74904;SDS011;63465;50.862;6.220;2024-02-26T01:10:34;2.70;;;1.60;;
74904;SDS011;63465;50.862;6.220;2024-02-26T01:12:59;6.03;;;1.40;;
74904;SDS011;63465;50.862;6.220;2024-02-26T01:15:25;1.60;;;1.30;;
74904;SDS011;63465;50.862;6.220;2024-02-26T01:17:50;2.60;;;1.40;;
74904;SDS011;63465;50.862;6.220;2024-02-26T01:20:16;1.83;;;1.30;;
74904;SDS011;63465;50.862;6.220;2024-02-26T01:22:42;3.13;;;1.50;;
74904;SDS011;63465;50.862;6.220;2024-02-26T01:25:08;3.60;;;1.20;;
74904;SDS011;63465;50.862;6.220;2024-02-26T01:27:34;3.20;;;1.40;;
74904;SDS011;63465;50.862;6.220;2024-02-26T01:30:00;4.83;;;1.60;;
74904;SDS011;63465;50.862;6.220;2024-02-26T01:32:28;1.73;;;1.40;;
74904;SDS011;63465;50.862;6.220;2024-02-26T01:34:53;1.40;;;1.30;;
74904;SDS011;63465;50.862;6.220;2024-02-26T01:37:18;2.30;;;1.50;;
74904;SDS011;63465;50.862;6.220;2024-02-26T01:39:43;3.37;;;1.50;;
74904;SDS011;63465;50.862;6.220;2024-02-26T01:42:09;1.57;;;1.47;;
74904;SDS011;63465;50.862;6.220;2024-02-26T01:44:34;1.43;;;1.20;;
74904;SDS011;63465;50.862;6.220;2024-02-26T01:47:00;3.47;;;1.33;;
74904;SDS011;63465;50.862;6.220;2024-02-26T01:49:26;1.60;;;1.50;;
74904;SDS011;63465;50.862;6.220;2024-02-26T01:51:52;5.17;;;1.60;;
74904;SDS011;63465;50.862;6.220;2024-02-26T01:54:17;2.27;;;1.50;;
74904;SDS011;63465;50.862;6.220;2024-02-26T01:56:43;1.40;;;1.30;;
74904;SDS011;63465;50.862;6.220;2024-02-26T01:59:08;1.40;;;1.30;;
74904;SDS011;63465;50.862;6.220;2024-02-26T02:01:34;2.13;;;1.40;;
74904;SDS011;63465;50.862;6.220;2024-02-26T02:04:01;1.60;;;1.50;;
74904;SDS011;63465;50.862;6.220;2024-02-26T02:06:27;2.20;;;1.53;;
74904;SDS011;63465;50.862;6.220;2024-02-26T02:08:56;1.60;;;1.50;;
74904;SDS011;63465;50.862;6.220;2024-02-26T02:11:21;1.60;;;1.50;;
74904;SDS011;63465;50.862;6.220;2024-02-26T02:13:47;1.60;;;1.50;;
74904;SDS011;63465;50.862;6.220;2024-02-26T02:16:12;2.73;;;2.27;;
74904;SDS011;63465;50.862;6.220;2024-02-26T02:18:38;1.57;;;1.47;;
74904;SDS011;63465;50.862;6.220;2024-02-26T02:21:03;2.33;;;1.17;;
74904;SDS011;63465;50.862;6.220;2024-02-26T02:23:29;1.40;;;1.30;;
74904;SDS011;63465;50.862;6.220;2024-02-26T02:25:54;5.47;;;1.67;;
74904;SDS011;63465;50.862;6.220;2024-02-26T02:28:22;1.50;;;1.40;;
74904;SDS011;63465;50.862;6.220;2024-02-26T02:30:50;4.47;;;1.90;;
74904;SDS011;63465;50.862;6.220;2024-02-26T02:33:15;2.90;;;1.80;;
74904;SDS011;63465;50.862;6.220;2024-02-26T02:35:42;3.53;;;1.70;;
74904;SDS011;63465;50.862;6.220;2024-02-26T02:38:07;1.60;;;1.50;;
74904;SDS011;63465;50.862;6.220;2024-02-26T02:40:32;1.20;;;1.20;;
74904;SDS011;63465;50.862;6.220;2024-02-26T02:42:58;1.70;;;1.60;;
74904;SDS011;63465;50.862;6.220;2024-02-26T02:45:24;1.40;;;1.30;;
74904;SDS011;63465;50.862;6.220;2024-02-26T02:47:50;1.50;;;1.40;;
74904;SDS011;63465;50.862;6.220;2024-02-26T02:50:15;1.60;;;1.50;;
74904;SDS011;63465;50.862;6.220;2024-02-26T02:52:41;1.70;;;1.60;;
74904;SDS011;63465;50.862;6.220;2024-02-26T02:55:06;2.40;;;1.80;;
74904;SDS011;63465;50.862;6.220;2024-02-26T02:57:32;1.60;;;1.50;;
74904;SDS011;63465;50.862;6.220;2024-02-26T02:59:58;1.73;;;1.63;;
74904;SDS011;63465;50.862;6.220;2024-02-26T03:02:23;2.33;;;1.50;;
74904;SDS011;63465;50.862;6.220;2024-02-26T03:04:49;1.40;;;1.30;;
74904;SDS011;63465;50.862;6.220;2024-02-26T03:07:15;1.60;;;1.50;;
74904;SDS011;63465;50.862;6.220;2024-02-26T03:09:40;1.80;;;1.70;;
74904;SDS011;63465;50.862;6.220;2024-02-26T03:12:06;1.60;;;1.50;;
74904;SDS011;63465;50.862;6.220;2024-02-26T03:14:31;3.80;;;1.63;;
74904;SDS011;63465;50.862;6.220;2024-02-26T03:16:56;1.87;;;1.40;;
74904;SDS011;63465;50.862;6.220;2024-02-26T03:19:22;1.60;;;1.30;;
74904;SDS011;63465;50.862;6.220;2024-02-26T03:21:47;1.50;;;1.40;;
74904;SDS011;63465;50.862;6.220;2024-02-26T03:24:12;4.53;;;1.40;;
74904;SDS011;63465;50.862;6.220;2024-02-26T03:26:38;1.53;;;1.43;;
74904;SDS011;63465;50.862;6.220;2024-02-26T03:29:03;2.17;;;1.50;;
74904;SDS011;63465;50.862;6.220;2024-02-26T03:31:29;1.50;;;1.07;;
74904;SDS011;63465;50.862;6.220;2024-02-26T03:33:55;1.17;;;1.17;;
74904;SDS011;63465;50.862;6.220;2024-02-26T03:36:20;1.30;;;1.30;;
74904;SDS011;63465;50.862;6.220;2024-02-26T03:38:46;1.90;;;1.80;;
74904;SDS011;63465;50.862;6.220;2024-02-26T03:41:12;1.53;;;1.30;;
74904;SDS011;63465;50.862;6.220;2024-02-26T03:43:37;1.40;;;1.30;;
74904;SDS011;63465;50.862;6.220;2024-02-26T03:46:03;1.90;;;1.63;;
74904;SDS011;63465;50.862;6.220;2024-02-26T03:48:28;1.20;;;1.17;;
74904;SDS011;63465;50.862;6.220;2024-02-26T03:50:53;1.73;;;1.20;;
74904;SDS011;63465;50.862;6.220;2024-02-26T03:53:19;2.50;;;1.80;;
74904;SDS011;63465;50.862;6.220;2024-02-26T03:55:44;1.10;;;1.10;;
74904;SDS011;63465;50.862;6.220;2024-02-26T03:58:09;1.40;;;1.30;;
74904;SDS011;63465;50.862;6.220;2024-02-26T04:00:37;1.43;;;1.33;;
74904;SDS011;63465;50.862;6.220;2024-02-26T04:03:02;2.70;;;1.27;;
74904;SDS011;63465;50.862;6.220;2024-02-26T04:05:28;1.37;;;1.30;;
74904;SDS011;63465;50.862;6.220;2024-02-26T04:07:53;3.57;;;1.57;;
74904;SDS011;63465;50.862;6.220;2024-02-26T04:10:18;1.50;;;1.40;;
74904;SDS011;63465;50.862;6.220;2024-02-26T04:12:44;1.57;;;1.47;;
74904;SDS011;63465;50.862;6.220;2024-02-26T04:15:09;1.30;;;1.20;;
74904;SDS011;63465;50.862;6.220;2024-02-26T04:17:35;1.30;;;1.20;;
74904;SDS011;63465;50.862;6.220;2024-02-26T04:20:02;1.87;;;1.47;;
74904;SDS011;63465;50.862;6.220;2024-02-26T04:22:27;1.47;;;1.37;;
74904;SDS011;63465;50.862;6.220;2024-02-26T04:24:53;3.13;;;1.40;;
74904;SDS011;63465;50.862;6.220;2024-02-26T04:27:18;2.10;;;1.50;;
74904;SDS011;63465;50.862;6.220;2024-02-26T04:29:43;2.17;;;1.40;;
74904;SDS011;63465;50.862;6.220;2024-02-26T04:32:09;1.70;;;1.60;;
74904;SDS011;63465;50.862;6.220;2024-02-26T04:34:34;1.63;;;1.53;;
74904;SDS011;63465;50.862;6.220;2024-02-26T04:37:00;1.60;;;1.50;;
74904;SDS011;63465;50.862;6.220;2024-02-26T04:39:25;3.60;;;1.57;;
74904;SDS011;63465;50.862;6.220;2024-02-26T04:41:51;3.77;;;1.60;;
74904;SDS011;63465;50.862;6.220;2024-02-26T04:44:16;1.80;;;1.70;;
74904;SDS011;63465;50.862;6.220;2024-02-26T04:46:41;2.20;;;1.70;;
74904;SDS011;63465;50.862;6.220;2024-02-26T04:49:07;3.10;;;1.50;;
74904;SDS011;63465;50.862;6.220;2024-02-26T04:51:32;2.20;;;1.47;;
74904;SDS011;63465;50.862;6.220;2024-02-26T04:53:57;1.60;;;1.50;;
74904;SDS011;63465;50.862;6.220;2024-02-26T04:56:23;1.97;;;1.77;;
74904;SDS011;63465;50.862;6.220;2024-02-26T04:58:48;2.27;;;2.07;;
74904;SDS011;63465;50.862;6.220;2024-02-26T05:01:14;1.53;;;1.40;;
74904;SDS011;63465;50.862;6.220;2024-02-26T05:03:41;1.60;;;1.43;;
74904;SDS011;63465;50.862;6.220;2024-02-26T05:06:07;2.63;;;1.80;;
74904;SDS011;63465;50.862;6.220;2024-02-26T05:08:34;3.00;;;1.50;;
74904;SDS011;63465;50.862;6.220;2024-02-26T05:11:00;2.80;;;1.67;;
74904;SDS011;63465;50.862;6.220;2024-02-26T05:13:27;1.63;;;1.50;;
74904;SDS011;63465;50.862;6.220;2024-02-26T05:15:53;1.80;;;1.70;;
74904;SDS011;63465;50.862;6.220;2024-02-26T05:18:18;1.40;;;1.30;;
74904;SDS011;63465;50.862;6.220;2024-02-26T05:20:43;2.47;;;1.67;;
74904;SDS011;63465;50.862;6.220;2024-02-26T05:23:09;2.30;;;1.87;;
74904;SDS011;63465;50.862;6.220;2024-02-26T05:25:34;2.83;;;1.77;;
74904;SDS011;63465;50.862;6.220;2024-02-26T05:27:59;2.70;;;1.90;;
74904;SDS011;63465;50.862;6.220;2024-02-26T05:30:25;2.40;;;1.57;;
74904;SDS011;63465;50.862;6.220;2024-02-26T05:32:53;1.50;;;1.40;;
74904;SDS011;63465;50.862;6.220;2024-02-26T05:35:18;2.30;;;1.90;;
74904;SDS011;63465;50.862;6.220;2024-02-26T05:37:43;3.63;;;1.50;;
74904;SDS011;63465;50.862;6.220;2024-02-26T05:40:09;1.83;;;1.50;;
74904;SDS011;63465;50.862;6.220;2024-02-26T05:42:34;1.60;;;1.50;;
74904;SDS011;63465;50.862;6.220;2024-02-26T05:45:00;1.83;;;1.70;;
74904;SDS011;63465;50.862;6.220;2024-02-26T05:47:30;1.70;;;1.60;;
74904;SDS011;63465;50.862;6.220;2024-02-26T05:49:57;2.10;;;1.90;;
74904;SDS011;63465;50.862;6.220;2024-02-26T05:52:24;5.10;;;1.73;;
74904;SDS011;63465;50.862;6.220;2024-02-26T05:54:49;2.37;;;1.90;;
74904;SDS011;63465;50.862;6.220;2024-02-26T05:57:15;1.57;;;1.47;;
74904;SDS011;63465;50.862;6.220;2024-02-26T05:59:40;1.70;;;1.60;;
74904;SDS011;63465;50.862;6.220;2024-02-26T06:02:05;1.97;;;1.87;;
74904;SDS011;63465;50.862;6.220;2024-02-26T06:04:31;2.10;;;2.00;;
74904;SDS011;63465;50.862;6.220;2024-02-26T06:06:56;3.50;;;2.27;;
74904;SDS011;63465;50.862;6.220;2024-02-26T06:09:22;2.33;;;2.17;;
74904;SDS011;63465;50.862;6.220;2024-02-26T06:11:48;3.73;;;2.10;;
74904;SDS011;63465;50.862;6.220;2024-02-26T06:14:13;2.87;;;2.20;;
74904;SDS011;63465;50.862;6.220;2024-02-26T06:16:43;2.60;;;2.40;;
74904;SDS011;63465;50.862;6.220;2024-02-26T06:19:08;2.43;;;2.23;;
74904;SDS011;63465;50.862;6.220;2024-02-26T06:21:33;2.07;;;1.97;;
74904;SDS011;63465;50.862;6.220;2024-02-26T06:23:59;1.90;;;1.80;;
74904;SDS011;63465;50.862;6.220;2024-02-26T06:26:24;3.37;;;2.40;;
74904;SDS011;63465;50.862;6.220;2024-02-26T06:28:51;2.70;;;2.13;;
74904;SDS011;63465;50.862;6.220;2024-02-26T06:31:17;1.77;;;1.67;;
74904;SDS011;63465;50.862;6.220;2024-02-26T06:33:42;2.93;;;2.10;;
74904;SDS011;63465;50.862;6.220;2024-02-26T06:36:08;3.50;;;2.50;;
74904;SDS011;63465;50.862;6.220;2024-02-26T06:38:33;2.10;;;2.00;;
74904;SDS011;63465;50.862;6.220;2024-02-26T06:40:58;2.47;;;2.30;;
74904;SDS011;63465;50.862;6.220;2024-02-26T06:43:23;2.40;;;2.20;;
74904;SDS011;63465;50.862;6.220;2024-02-26T06:45:49;7.13;;;4.73;;
74904;SDS011;63465;50.862;6.220;2024-02-26T06:48:14;3.40;;;2.60;;
74904;SDS011;63465;50.862;6.220;2024-02-26T06:50:39;3.13;;;2.93;;
74904;SDS011;63465;50.862;6.220;2024-02-26T06:53:06;3.33;;;3.10;;
74904;SDS011;63465;50.862;6.220;2024-02-26T06:55:32;3.00;;;2.73;;
74904;SDS011;63465;50.862;6.220;2024-02-26T06:57:57;3.20;;;2.90;;
74904;SDS011;63465;50.862;6.220;2024-02-26T07:00:23;3.60;;;2.43;;
74904;SDS011;63465;50.862;6.220;2024-02-26T07:02:48;2.23;;;2.13;;
74904;SDS011;63465;50.862;6.220;2024-02-26T07:05:13;3.30;;;2.47;;
74904;SDS011;63465;50.862;6.220;2024-02-26T07:07:39;2.47;;;2.27;;
74904;SDS011;63465;50.862;6.220;2024-02-26T07:10:05;3.20;;;2.90;;
74904;SDS011;63465;50.862;6.220;2024-02-26T07:12:31;3.10;;;2.90;;
74904;SDS011;63465;50.862;6.220;2024-02-26T07:14:56;2.90;;;2.70;;
74904;SDS011;63465;50.862;6.220;2024-02-26T07:17:22;3.80;;;3.30;;
74904;SDS011;63465;50.862;6.220;2024-02-26T07:19:48;2.87;;;2.67;;
74904;SDS011;63465;50.862;6.220;2024-02-26T07:22:13;3.23;;;2.90;;
74904;SDS011;63465;50.862;6.220;2024-02-26T07:24:38;3.40;;;3.10;;
74904;SDS011;63465;50.862;6.220;2024-02-26T07:27:04;6.73;;;2.80;;
74904;SDS011;63465;50.862;6.220;2024-02-26T07:29:29;3.20;;;2.90;;
74904;SDS011;63465;50.862;6.220;2024-02-26T07:31:55;4.83;;;3.40;;
74904;SDS011;63465;50.862;6.220;2024-02-26T07:34:20;3.93;;;3.63;;
74904;SDS011;63465;50.862;6.220;2024-02-26T07:36:52;2.90;;;2.70;;
74904;SDS011;63465;50.862;6.220;2024-02-26T07:39:17;6.30;;;3.57;;
74904;SDS011;63465;50.862;6.220;2024-02-26T07:41:43;2.87;;;2.67;;
74904;SDS011;63465;50.862;6.220;2024-02-26T07:44:11;2.50;;;2.30;;
74904;SDS011;63465;50.862;6.220;2024-02-26T07:46:36;3.00;;;2.50;;
74904;SDS011;63465;50.862;6.220;2024-02-26T07:49:02;2.67;;;2.47;;
74904;SDS011;63465;50.862;6.220;2024-02-26T07:51:27;2.83;;;2.63;;
74904;SDS011;63465;50.862;6.220;2024-02-26T07:53:53;3.90;;;2.70;;
74904;SDS011;63465;50.862;6.220;2024-02-26T07:56:18;2.83;;;2.63;;
74904;SDS011;63465;50.862;6.220;2024-02-26T07:58:43;3.10;;;2.80;;
74904;SDS011;63465;50.862;6.220;2024-02-26T08:01:09;2.80;;;2.70;;
74904;SDS011;63465;50.862;6.220;2024-02-26T08:03:37;4.83;;;2.70;;
74904;SDS011;63465;50.862;6.220;2024-02-26T08:06:03;4.00;;;3.07;;
74904;SDS011;63465;50.862;6.220;2024-02-26T08:08:28;2.87;;;2.67;;
74904;SDS011;63465;50.862;6.220;2024-02-26T08:10:53;3.00;;;2.80;;
74904;SDS011;63465;50.862;6.220;2024-02-26T08:13:19;6.47;;;3.10;;
74904;SDS011;63465;50.862;6.220;2024-02-26T08:15:44;3.60;;;2.87;;
74904;SDS011;63465;50.862;6.220;2024-02-26T08:18:09;3.90;;;3.23;;
74904;SDS011;63465;50.862;6.220;2024-02-26T08:20:35;2.70;;;2.50;;
74904;SDS011;63465;50.862;6.220;2024-02-26T08:23:00;4.60;;;2.70;;
74904;SDS011;63465;50.862;6.220;2024-02-26T08:25:26;4.10;;;2.67;;
74904;SDS011;63465;50.862;6.220;2024-02-26T08:27:51;2.77;;;2.57;;
74904;SDS011;63465;50.862;6.220;2024-02-26T08:30:17;3.00;;;2.70;;
74904;SDS011;63465;50.862;6.220;2024-02-26T08:32:42;3.27;;;2.97;;
74904;SDS011;63465;50.862;6.220;2024-02-26T08:35:09;2.60;;;2.40;;
74904;SDS011;63465;50.862;6.220;2024-02-26T08:37:34;2.70;;;2.50;;
74904;SDS011;63465;50.862;6.220;2024-02-26T08:39:59;2.93;;;2.73;;
74904;SDS011;63465;50.862;6.220;2024-02-26T08:42:26;2.20;;;2.10;;
74904;SDS011;63465;50.862;6.220;2024-02-26T08:44:51;2.40;;;2.30;;
74904;SDS011;63465;50.862;6.220;2024-02-26T08:47:17;2.50;;;2.30;;
74904;SDS011;63465;50.862;6.220;2024-02-26T08:49:42;2.93;;;2.73;;
74904;SDS011;63465;50.862;6.220;2024-02-26T08:52:09;3.33;;;2.97;;
74904;SDS011;63465;50.862;6.220;2024-02-26T08:54:34;2.80;;;2.60;;
74904;SDS011;63465;50.862;6.220;2024-02-26T08:57:00;2.97;;;2.77;;
74904;SDS011;63465;50.862;6.220;2024-02-26T08:59:25;4.03;;;2.83;;
74904;SDS011;63465;50.862;6.220;2024-02-26T09:01:50;3.20;;;2.97;;
74904;SDS011;63465;50.862;6.220;2024-02-26T09:04:15;2.87;;;2.60;;
74904;SDS011;63465;50.862;6.220;2024-02-26T09:06:41;3.00;;;2.80;;
74904;SDS011;63465;50.862;6.220;2024-02-26T09:09:06;2.90;;;2.70;;
74904;SDS011;63465;50.862;6.220;2024-02-26T09:11:31;4.13;;;3.40;;
74904;SDS011;63465;50.862;6.220;2024-02-26T09:13:57;3.40;;;3.03;;
74904;SDS011;63465;50.862;6.220;2024-02-26T09:16:22;4.03;;;3.07;;
74904;SDS011;63465;50.862;6.220;2024-02-26T09:18:47;3.93;;;3.10;;
74904;SDS011;63465;50.862;6.220;2024-02-26T09:21:13;3.37;;;3.13;;
74904;SDS011;63465;50.862;6.220;2024-02-26T09:23:38;3.90;;;3.20;;
74904;SDS011;63465;50.862;6.220;2024-02-26T09:26:05;6.47;;;3.20;;
74904;SDS011;63465;50.862;6.220;2024-02-26T09:28:31;3.30;;;3.10;;
74904;SDS011;63465;50.862;6.220;2024-02-26T09:31:02;3.53;;;3.23;;
74904;SDS011;63465;50.862;6.220;2024-02-26T09:33:28;3.93;;;3.57;;
74904;SDS011;63465;50.862;6.220;2024-02-26T09:35:53;3.30;;;3.00;;
74904;SDS011;63465;50.862;6.220;2024-02-26T09:38:19;3.87;;;3.57;;
74904;SDS011;63465;50.862;6.220;2024-02-26T09:40:44;3.40;;;3.10;;
74904;SDS011;63465;50.862;6.220;2024-02-26T09:43:10;3.73;;;3.43;;
74904;SDS011;63465;50.862;6.220;2024-02-26T09:45:40;4.17;;;3.43;;
74904;SDS011;63465;50.862;6.220;2024-02-26T09:48:07;3.60;;;3.00;;
74904;SDS011;63465;50.862;6.220;2024-02-26T09:50:33;3.50;;;3.20;;
74904;SDS011;63465;50.862;6.220;2024-02-26T09:52:59;4.13;;;3.53;;
74904;SDS011;63465;50.862;6.220;2024-02-26T09:55:27;4.83;;;3.90;;
74904;SDS011;63465;50.862;6.220;2024-02-26T09:57:53;4.60;;;3.60;;
74904;SDS011;63465;50.862;6.220;2024-02-26T10:00:19;7.13;;;4.00;;
74904;SDS011;63465;50.862;6.220;2024-02-26T10:02:46;3.50;;;3.20;;
74904;SDS011;63465;50.862;6.220;2024-02-26T10:05:18;7.13;;;4.00;;
74904;SDS011;63465;50.862;6.220;2024-02-26T10:07:44;5.43;;;3.83;;
74904;SDS011;63465;50.862;6.220;2024-02-26T10:10:10;3.53;;;3.23;;
74904;SDS011;63465;50.862;6.220;2024-02-26T10:12:36;2.87;;;2.67;;
74904;SDS011;63465;50.862;6.220;2024-02-26T10:15:01;2.60;;;2.40;;
74904;SDS011;63465;50.862;6.220;2024-02-26T10:17:26;2.90;;;2.70;;
74904;SDS011;63465;50.862;6.220;2024-02-26T10:19:53;2.77;;;2.67;;
74904;SDS011;63465;50.862;6.220;2024-02-26T10:22:21;2.53;;;2.30;;
74904;SDS011;63465;50.862;6.220;2024-02-26T10:24:47;2.37;;;2.23;;
74904;SDS011;63465;50.862;6.220;2024-02-26T10:27:13;2.33;;;2.23;;
74904;SDS011;63465;50.862;6.220;2024-02-26T10:29:39;2.13;;;1.93;;
74904;SDS011;63465;50.862;6.220;2024-02-26T10:32:06;2.70;;;2.50;;
74904;SDS011;63465;50.862;6.220;2024-02-26T10:34:32;4.73;;;2.77;;
74904;SDS011;63465;50.862;6.220;2024-02-26T10:37:02;3.00;;;2.80;;
74904;SDS011;63465;50.862;6.220;2024-02-26T10:39:28;3.03;;;2.67;;
74904;SDS011;63465;50.862;6.220;2024-02-26T10:41:53;2.37;;;2.27;;
74904;SDS011;63465;50.862;6.220;2024-02-26T10:44:19;2.60;;;2.40;;
74904;SDS011;63465;50.862;6.220;2024-02-26T10:46:44;2.60;;;2.40;;
74904;SDS011;63465;50.862;6.220;2024-02-26T10:49:13;3.20;;;2.80;;
74904;SDS011;63465;50.862;6.220;2024-02-26T10:51:40;3.03;;;2.83;;
74904;SDS011;63465;50.862;6.220;2024-02-26T10:54:09;2.63;;;2.43;;
74904;SDS011;63465;50.862;6.220;2024-02-26T10:56:40;2.60;;;2.40;;
74904;SDS011;63465;50.862;6.220;2024-02-26T10:59:08;2.93;;;2.57;;
74904;SDS011;63465;50.862;6.220;2024-02-26T11:01:35;2.83;;;2.63;;
74904;SDS011;63465;50.862;6.220;2024-02-26T11:04:03;2.93;;;2.30;;
74904;SDS011;63465;50.862;6.220;2024-02-26T11:06:29;2.67;;;2.47;;
74904;SDS011;63465;50.862;6.220;2024-02-26T11:08:54;2.73;;;2.63;;
74904;SDS011;63465;50.862;6.220;2024-02-26T11:11:21;2.27;;;2.13;;
74904;SDS011;63465;50.862;6.220;2024-02-26T11:13:47;2.20;;;2.10;;
74904;SDS011;63465;50.862;6.220;2024-02-26T11:16:20;2.90;;;2.20;;
74904;SDS011;63465;50.862;6.220;2024-02-26T11:18:46;2.60;;;2.40;;
74904;SDS011;63465;50.862;6.220;2024-02-26T11:21:13;2.67;;;2.50;;
74904;SDS011;63465;50.862;6.220;2024-02-26T11:23:41;3.10;;;2.47;;
74904;SDS011;63465;50.862;6.220;2024-02-26T11:26:07;2.67;;;2.47;;
74904;SDS011;63465;50.862;6.220;2024-02-26T11:28:35;2.67;;;2.47;;
74904;SDS011;63465;50.862;6.220;2024-02-26T11:31:02;2.57;;;2.37;;
74904;SDS011;63465;50.862;6.220;2024-02-26T11:33:29;2.00;;;1.90;;
74904;SDS011;63465;50.862;6.220;2024-02-26T11:35:55;2.43;;;2.23;;
74904;SDS011;63465;50.862;6.220;2024-02-26T11:38:21;2.30;;;2.20;;
74904;SDS011;63465;50.862;6.220;2024-02-26T11:40:48;2.40;;;2.20;;
74904;SDS011;63465;50.862;6.220;2024-02-26T11:43:15;2.37;;;2.27;;
74904;SDS011;63465;50.862;6.220;2024-02-26T11:48:11;2.30;;;2.20;;
74904;SDS011;63465;50.862;6.220;2024-02-26T11:50:41;2.00;;;1.90;;
74904;SDS011;63465;50.862;6.220;2024-02-26T11:56:20;2.83;;;2.63;;
74904;SDS011;63465;50.862;6.220;2024-02-26T11:58:59;2.37;;;2.17;;
74904;SDS011;63465;50.862;6.220;2024-02-26T12:04:11;2.57;;;2.37;;
74904;SDS011;63465;50.862;6.220;2024-02-26T12:06:40;2.90;;;2.70;;
74904;SDS011;63465;50.862;6.220;2024-02-26T12:09:10;3.03;;;2.83;;
74904;SDS011;63465;50.862;6.220;2024-02-26T12:11:39;3.37;;;3.07;;
74904;SDS011;63465;50.862;6.220;2024-02-26T12:14:08;5.30;;;2.90;;
74904;SDS011;63465;50.862;6.220;2024-02-26T12:16:38;3.17;;;2.87;;
74904;SDS011;63465;50.862;6.220;2024-02-26T12:19:04;3.50;;;3.20;;
74904;SDS011;63465;50.862;6.220;2024-02-26T12:21:32;4.33;;;3.90;;
74904;SDS011;63465;50.862;6.220;2024-02-26T12:24:06;5.00;;;3.50;;
74904;SDS011;63465;50.862;6.220;2024-02-26T12:26:35;3.90;;;3.60;;
74904;SDS011;63465;50.862;6.220;2024-02-26T12:29:00;5.53;;;3.50;;
74904;SDS011;63465;50.862;6.220;2024-02-26T12:31:26;5.70;;;3.57;;
74904;SDS011;63465;50.862;6.220;2024-02-26T12:33:53;5.73;;;3.50;;
74904;SDS011;63465;50.862;6.220;2024-02-26T12:36:19;5.90;;;3.57;;
74904;SDS011;63465;50.862;6.220;2024-02-26T12:38:45;6.60;;;3.30;;
74904;SDS011;63465;50.862;6.220;2024-02-26T12:41:11;4.30;;;3.90;;
74904;SDS011;63465;50.862;6.220;2024-02-26T12:43:36;5.67;;;4.37;;
74904;SDS011;63465;50.862;6.220;2024-02-26T12:46:03;5.47;;;3.63;;
74904;SDS011;63465;50.862;6.220;2024-02-26T12:48:28;4.63;;;4.23;;
74904;SDS011;63465;50.862;6.220;2024-02-26T12:50:54;8.70;;;3.90;;
74904;SDS011;63465;50.862;6.220;2024-02-26T12:53:21;5.60;;;4.83;;
74904;SDS011;63465;50.862;6.220;2024-02-26T12:55:46;5.27;;;4.77;;
74904;SDS011;63465;50.862;6.220;2024-02-26T12:58:12;5.30;;;4.40;;
74904;SDS011;63465;50.862;6.220;2024-02-26T13:00:38;5.57;;;4.90;;
74904;SDS011;63465;50.862;6.220;2024-02-26T13:03:03;4.60;;;4.20;;
74904;SDS011;63465;50.862;6.220;2024-02-26T13:05:29;4.60;;;4.13;;
74904;SDS011;63465;50.862;6.220;2024-02-26T13:07:56;5.07;;;4.23;;
74904;SDS011;63465;50.862;6.220;2024-02-26T13:10:21;5.33;;;4.40;;
74904;SDS011;63465;50.862;6.220;2024-02-26T13:12:47;5.77;;;4.07;;
74904;SDS011;63465;50.862;6.220;2024-02-26T13:15:19;4.40;;;4.00;;
74904;SDS011;63465;50.862;6.220;2024-02-26T13:17:45;5.33;;;4.10;;
74904;SDS011;63465;50.862;6.220;2024-02-26T13:20:12;4.13;;;3.73;;
74904;SDS011;63465;50.862;6.220;2024-02-26T13:22:38;4.50;;;4.00;;
74904;SDS011;63465;50.862;6.220;2024-02-26T13:25:04;4.10;;;3.70;;
74904;SDS011;63465;50.862;6.220;2024-02-26T13:27:32;4.60;;;3.63;;
74904;SDS011;63465;50.862;6.220;2024-02-26T13:30:10;4.00;;;3.57;;
74904;SDS011;63465;50.862;6.220;2024-02-26T13:32:37;5.53;;;3.53;;
74904;SDS011;63465;50.862;6.220;2024-02-26T13:35:12;4.20;;;3.80;;
74904;SDS011;63465;50.862;6.220;2024-02-26T13:37:38;5.03;;;4.33;;
74904;SDS011;63465;50.862;6.220;2024-02-26T13:40:05;4.40;;;4.00;;
74904;SDS011;63465;50.862;6.220;2024-02-26T13:42:34;6.03;;;4.50;;
74904;SDS011;63465;50.862;6.220;2024-02-26T13:45:00;5.70;;;4.93;;
74904;SDS011;63465;50.862;6.220;2024-02-26T13:47:26;5.80;;;4.97;;
74904;SDS011;63465;50.862;6.220;2024-02-26T13:49:52;6.50;;;5.30;;
74904;SDS011;63465;50.862;6.220;2024-02-26T13:52:17;7.37;;;6.00;;
74904;SDS011;63465;50.862;6.220;2024-02-26T13:54:42;7.53;;;6.03;;
74904;SDS011;63465;50.862;6.220;2024-02-26T13:57:08;7.53;;;5.37;;
74904;SDS011;63465;50.862;6.220;2024-02-26T13:59:34;8.00;;;5.93;;
74904;SDS011;63465;50.862;6.220;2024-02-26T14:02:00;8.60;;;5.50;;
74904;SDS011;63465;50.862;6.220;2024-02-26T14:04:25;7.27;;;5.70;;
74904;SDS011;63465;50.862;6.220;2024-02-26T14:06:50;8.03;;;6.10;;
74904;SDS011;63465;50.862;6.220;2024-02-26T14:09:15;8.37;;;6.00;;
74904;SDS011;63465;50.862;6.220;2024-02-26T14:11:44;9.03;;;6.13;;
74904;SDS011;63465;50.862;6.220;2024-02-26T14:14:10;9.50;;;6.77;;
74904;SDS011;63465;50.862;6.220;2024-02-26T14:16:35;7.60;;;6.73;;
74904;SDS011;63465;50.862;6.220;2024-02-26T14:19:01;10.70;;;7.00;;
74904;SDS011;63465;50.862;6.220;2024-02-26T14:21:27;9.57;;;7.07;;
74904;SDS011;63465;50.862;6.220;2024-02-26T14:23:54;9.17;;;7.23;;
74904;SDS011;63465;50.862;6.220;2024-02-26T14:26:20;10.20;;;7.67;;
74904;SDS011;63465;50.862;6.220;2024-02-26T14:28:46;11.97;;;7.80;;
74904;SDS011;63465;50.862;6.220;2024-02-26T14:31:11;12.67;;;8.57;;
74904;SDS011;63465;50.862;6.220;2024-02-26T14:33:39;11.97;;;8.17;;
74904;SDS011;63465;50.862;6.220;2024-02-26T14:36:06;18.73;;;9.20;;
74904;SDS011;63465;50.862;6.220;2024-02-26T14:38:32;13.13;;;8.80;;
74904;SDS011;63465;50.862;6.220;2024-02-26T14:40:57;14.00;;;9.37;;
74904;SDS011;63465;50.862;6.220;2024-02-26T14:43:22;15.33;;;10.00;;
74904;SDS011;63465;50.862;6.220;2024-02-26T14:45:48;16.90;;;10.70;;
74904;SDS011;63465;50.862;6.220;2024-02-26T14:48:13;18.20;;;10.50;;
74904;SDS011;63465;50.862;6.220;2024-02-26T14:50:38;17.53;;;10.63;;
74904;SDS011;63465;50.862;6.220;2024-02-26T14:53:03;18.70;;;10.77;;
74904;SDS011;63465;50.862;6.220;2024-02-26T14:55:29;17.90;;;11.70;;
74904;SDS011;63465;50.862;6.220;2024-02-26T14:57:54;18.20;;;12.07;;